Glinton, United Kingdom
Current Conditions -  °F | °C
As of 3:50 PM on Thursday 30 Oct 2014 (Local Time) from EGXT Reporting Station
Scattered Clouds Scattered Clouds  
Wind Chill: 17°   Ceiling: Unl
Heat Index: 17°   Visibility: 6mi
Dew Point: 14°   Wind: 9mph
Humidity: 82%   Direction: 180°S
Pressure: 30"   Gusts: NA
Location:  52.64°N, 0.3°W
Report Text: EGXT 301550Z 18008KT 9999 SCT037 17/14 Q1016 BLU
Loading
Personal Weather Stations






























Interactive Weather Map
Tropical Storm Tracking
New forecast layout! Learn more

10-Day Weather Forecast

Advertisements
Track Severe Weather on mobile